Time;durP1;ratioP1;P1;durP2;ratioP2;P2;SDS_P1;SDS_P2;PMS_P1;PMS_P2;Temp;Humidity;BMP_temperature;BMP_pressure;BME280_temperature;BME280_humidity;BME280_pressure;Samples;Min_cycle;Max_cycle;Signal;HPM_P1;HPM_P2
2024/02/07 00:01:04;;;;;;;137.35;61.83;;;;;;;;;;10565383;27;20859;-86
2024/02/07 00:06:08;;;;;;;132.73;60.45;;;;;;;;;;10566541;27;20410;-86
2024/02/07 00:11:10;;;;;;;140.45;62.13;;;;;;;;;;10562888;27;20406;-86
2024/02/07 00:16:13;;;;;;;140.68;61.83;;;;;;;;;;10563905;27;20892;-86
2024/02/07 00:21:17;;;;;;;138.63;61.47;;;;;;;;;;10556482;28;20427;-87
2024/02/07 00:26:20;;;;;;;135.02;59.90;;;;;;;;;;10554767;28;20408;-86
2024/02/07 00:31:23;;;;;;;142.23;60.93;;;;;;;;;;10559638;28;20525;-86
2024/02/07 00:36:26;;;;;;;137.38;61.20;;;;;;;;;;10556598;28;20466;-87
2024/02/07 00:41:29;;;;;;;130.88;60.67;;;;;;;;;;10554868;28;20497;-86
2024/02/07 00:46:31;;;;;;;132.20;60.58;;;;;;;;;;10555420;28;20476;-86
2024/02/07 00:51:35;;;;;;;136.55;59.35;;;;;;;;;;10549524;28;20916;-86
2024/02/07 00:56:37;;;;;;;132.82;59.20;;;;;;;;;;10552990;28;20477;-85
2024/02/07 01:01:40;;;;;;;130.07;56.42;;;;;;;;;;10563572;28;20439;-85
2024/02/07 01:06:44;;;;;;;128.20;56.63;;;;;;;;;;10557525;28;20489;-86
2024/02/07 01:11:47;;;;;;;124.68;54.97;;;;;;;;;;10564230;28;20409;-88
2024/02/07 01:16:49;;;;;;;135.20;55.55;;;;;;;;;;10564153;28;20399;-86
2024/02/07 01:21:53;;;;;;;129.37;53.87;;;;;;;;;;10557962;28;20475;-86
2024/02/07 01:26:56;;;;;;;126.50;51.90;;;;;;;;;;10553969;28;20509;-86
2024/02/07 01:42:32;;;;;;;129.68;54.95;;;;;;;;;;10561931;28;20409;-96
2024/02/07 01:47:34;;;;;;;131.40;56.85;;;;;;;;;;10565638;28;20408;-92
2024/02/07 01:52:40;;;;;;;127.57;54.58;;;;;;;;;;10551978;28;22200;-90
2024/02/07 01:57:45;;;;;;;135.18;55.85;;;;;;;;;;10587573;28;20465;-95
2024/02/07 02:02:52;;;;;;;127.75;53.85;;;;;;;;;;10554071;28;20408;-93
2024/02/07 02:07:55;;;;;;;125.28;54.20;;;;;;;;;;10550613;28;20897;-90
2024/02/07 02:12:59;;;;;;;119.07;51.50;;;;;;;;;;10549775;28;20423;-94
2024/02/07 02:18:02;;;;;;;120.07;53.77;;;;;;;;;;10559698;28;20404;-93
2024/02/07 02:23:17;;;;;;;118.00;51.90;;;;;;;;;;10584073;28;20802;-89
2024/02/07 02:28:29;;;;;;;122.13;52.83;;;;;;;;;;10556756;28;20404;-96
2024/02/07 02:33:35;;;;;;;124.15;53.90;;;;;;;;;;10559276;28;20401;-93
2024/02/07 02:38:37;;;;;;;118.80;52.27;;;;;;;;;;10565169;22;20481;-94
2024/02/07 02:43:40;;;;;;;122.75;53.78;;;;;;;;;;10539656;28;20404;-94
2024/02/07 02:48:43;;;;;;;120.43;52.72;;;;;;;;;;10528303;28;20426;-93
2024/02/07 02:53:46;;;;;;;124.88;52.67;;;;;;;;;;10524986;28;20406;-93
2024/02/07 02:58:48;;;;;;;117.13;51.88;;;;;;;;;;10525664;28;20396;-93
2024/02/07 03:03:54;;;;;;;122.00;52.88;;;;;;;;;;10529138;28;20398;-93
2024/02/07 03:09:06;;;;;;;117.03;53.05;;;;;;;;;;10525556;28;20420;-93
2024/02/07 03:14:08;;;;;;;119.73;51.20;;;;;;;;;;10527295;28;20404;-93
2024/02/07 03:19:12;;;;;;;116.20;51.63;;;;;;;;;;10524246;28;20414;-93
2024/02/07 03:24:15;;;;;;;114.25;52.42;;;;;;;;;;10522814;28;20446;-94
2024/02/07 03:29:17;;;;;;;114.22;51.88;;;;;;;;;;10525722;28;20484;-93
2024/02/07 03:34:21;;;;;;;118.20;51.63;;;;;;;;;;10525313;28;20404;-93
2024/02/07 03:39:23;;;;;;;118.63;51.20;;;;;;;;;;10522591;28;20477;-94
2024/02/07 03:44:26;;;;;;;115.07;51.10;;;;;;;;;;10527994;28;20418;-94
2024/02/07 03:49:30;;;;;;;120.63;50.63;;;;;;;;;;10521053;28;20489;-93
2024/02/07 03:54:32;;;;;;;130.03;53.97;;;;;;;;;;10519920;28;20475;-94
2024/02/07 03:59:35;;;;;;;133.75;52.85;;;;;;;;;;10520458;28;20495;-93
2024/02/07 04:04:39;;;;;;;127.30;52.88;;;;;;;;;;10535796;28;20759;-93
2024/02/07 04:09:41;;;;;;;124.73;53.47;;;;;;;;;;10530696;28;20493;-94
2024/02/07 05:18:27;;;;;;;126.25;53.65;;;;;;;;;;10530007;28;20394;-93
2024/02/07 05:23:31;;;;;;;121.20;51.92;;;;;;;;;;10530803;28;20438;-93
2024/02/07 05:28:34;;;;;;;122.27;52.03;;;;;;;;;;10533601;28;20416;-93
2024/02/07 05:33:36;;;;;;;126.25;51.97;;;;;;;;;;10527503;28;20430;-93
2024/02/07 05:38:40;;;;;;;128.52;54.65;;;;;;;;;;10529986;28;20413;-94
2024/02/07 05:43:42;;;;;;;131.10;55.03;;;;;;;;;;10531740;28;21101;-94
2024/02/07 05:48:45;;;;;;;121.33;53.07;;;;;;;;;;10524606;28;20417;-94
2024/02/07 05:53:49;;;;;;;117.43;52.00;;;;;;;;;;10529517;28;20470;-93
2024/02/07 05:58:51;;;;;;;128.13;54.38;;;;;;;;;;10506238;28;20766;-90
2024/02/07 06:03:53;;;;;;;128.40;56.13;;;;;;;;;;10531420;28;20475;-90
2024/02/07 06:08:58;;;;;;;132.00;57.30;;;;;;;;;;10521020;28;20422;-89
2024/02/07 06:14:02;;;;;;;133.90;56.38;;;;;;;;;;10522183;28;20402;-89
2024/02/07 06:19:05;;;;;;;136.02;58.25;;;;;;;;;;10530810;28;20400;-81
2024/02/07 06:24:08;;;;;;;135.30;56.73;;;;;;;;;;10513242;28;20466;-94
2024/02/07 06:29:11;;;;;;;134.25;54.97;;;;;;;;;;10526469;28;20917;-93
2024/02/07 06:34:13;;;;;;;134.93;58.60;;;;;;;;;;10512891;28;20963;-94
2024/02/07 06:39:17;;;;;;;137.70;57.60;;;;;;;;;;10514582;28;20391;-93
2024/02/07 06:44:19;;;;;;;132.40;57.03;;;;;;;;;;10521563;28;20816;-93
2024/02/07 06:49:22;;;;;;;138.02;57.72;;;;;;;;;;10521803;28;20483;-93
2024/02/07 06:54:25;;;;;;;138.85;57.60;;;;;;;;;;10506299;28;20409;-94
2024/02/07 06:59:28;;;;;;;137.80;58.77;;;;;;;;;;10517151;28;20514;-94
2024/02/07 07:04:30;;;;;;;145.75;59.35;;;;;;;;;;10517865;28;20515;-94
2024/02/07 07:09:34;;;;;;;144.68;60.25;;;;;;;;;;10513659;28;20448;-94
2024/02/07 07:14:39;;;;;;;140.00;59.72;;;;;;;;;;10519671;28;20445;-94
2024/02/07 07:19:41;;;;;;;146.53;65.80;;;;;;;;;;10524964;28;20770;-92
2024/02/07 07:24:45;;;;;;;149.60;63.83;;;;;;;;;;10530514;28;20645;-93
2024/02/07 07:29:48;;;;;;;149.80;64.07;;;;;;;;;;10531175;28;20420;-94
2024/02/07 07:34:50;;;;;;;152.20;65.95;;;;;;;;;;10525188;28;20432;-93
2024/02/07 07:39:54;;;;;;;147.77;65.32;;;;;;;;;;10527113;28;20899;-92
2024/02/07 07:44:56;;;;;;;151.07;64.85;;;;;;;;;;10545076;28;20413;-93
2024/02/07 07:49:59;;;;;;;152.10;66.47;;;;;;;;;;10519437;28;20834;-93
2024/02/07 07:55:02;;;;;;;137.15;63.22;;;;;;;;;;10530251;28;20453;-93
2024/02/07 08:00:06;;;;;;;144.38;62.28;;;;;;;;;;10528043;28;20519;-93
2024/02/07 08:05:09;;;;;;;143.13;63.28;;;;;;;;;;10524958;28;20406;-93
2024/02/07 08:10:12;;;;;;;150.47;62.87;;;;;;;;;;10522374;28;20413;-94
2024/02/07 08:15:15;;;;;;;148.45;65.45;;;;;;;;;;10526630;28;20817;-94
2024/02/07 08:20:21;;;;;;;146.38;63.30;;;;;;;;;;10536478;28;20408;-95
2024/02/07 08:25:25;;;;;;;142.90;63.88;;;;;;;;;;10518715;28;20404;-94
2024/02/07 08:30:28;;;;;;;144.60;62.67;;;;;;;;;;10532187;28;20864;-94
2024/02/07 08:35:30;;;;;;;146.40;62.90;;;;;;;;;;10540269;28;20888;-93
2024/02/07 08:40:34;;;;;;;147.55;64.15;;;;;;;;;;10533295;28;20400;-92
2024/02/07 08:45:37;;;;;;;144.60;64.90;;;;;;;;;;10527005;28;20890;-90
2024/02/07 08:50:40;;;;;;;142.90;63.97;;;;;;;;;;10529475;28;20478;-92
2024/02/07 08:55:44;;;;;;;152.57;67.00;;;;;;;;;;10518846;28;20942;-91
2024/02/07 09:00:46;;;;;;;147.70;65.03;;;;;;;;;;10525407;28;20458;-92
2024/02/07 09:05:48;;;;;;;149.17;66.23;;;;;;;;;;10525134;28;20404;-92
2024/02/07 09:10:52;;;;;;;147.57;66.03;;;;;;;;;;10521620;28;20483;-92
2024/02/07 09:15:54;;;;;;;152.48;66.07;;;;;;;;;;10509935;28;20486;-93
2024/02/07 09:20:57;;;;;;;143.40;63.33;;;;;;;;;;10523884;28;20412;-91
2024/02/07 09:26:01;;;;;;;149.93;67.18;;;;;;;;;;10514513;28;20474;-92
2024/02/07 09:31:03;;;;;;;149.75;66.45;;;;;;;;;;10529429;28;20469;-91
2024/02/07 09:36:06;;;;;;;148.88;66.20;;;;;;;;;;10528822;28;20400;-90
2024/02/07 09:41:14;;;;;;;155.97;66.87;;;;;;;;;;10521283;28;20493;-93
2024/02/07 09:46:20;;;;;;;162.13;68.37;;;;;;;;;;10527145;28;20402;-91
2024/02/07 09:51:24;;;;;;;156.23;68.90;;;;;;;;;;10539088;28;20486;-91
2024/02/07 09:56:30;;;;;;;149.65;67.80;;;;;;;;;;10514354;28;20449;-92
2024/02/07 10:01:34;;;;;;;154.15;67.32;;;;;;;;;;10532332;28;20894;-91
2024/02/07 10:06:37;;;;;;;155.70;66.88;;;;;;;;;;10524898;28;20412;-92
2024/02/07 10:11:41;;;;;;;151.02;66.35;;;;;;;;;;10532344;28;20910;-90
2024/02/07 10:16:44;;;;;;;152.60;67.00;;;;;;;;;;10526371;28;20813;-92
2024/02/07 10:21:47;;;;;;;146.30;67.35;;;;;;;;;;10519513;28;20438;-92
2024/02/07 10:26:51;;;;;;;153.73;67.55;;;;;;;;;;10527658;28;20454;-92
2024/02/07 10:31:54;;;;;;;145.67;66.23;;;;;;;;;;10529265;28;20416;-92
2024/02/07 10:36:59;;;;;;;141.13;63.15;;;;;;;;;;10532743;28;20536;-92
2024/02/07 10:42:09;;;;;;;144.07;62.50;;;;;;;;;;10524992;28;20465;-91
2024/02/07 10:47:12;;;;;;;147.15;64.75;;;;;;;;;;10530804;28;20404;-92
2024/02/07 10:52:14;;;;;;;142.52;64.40;;;;;;;;;;10526406;28;20412;-92
2024/02/07 10:57:22;;;;;;;141.88;61.95;;;;;;;;;;10522301;28;20436;-92
2024/02/07 11:02:25;;;;;;;145.13;63.90;;;;;;;;;;10528091;28;20412;-92
2024/02/07 11:07:28;;;;;;;138.30;61.87;;;;;;;;;;10519213;28;20399;-93
2024/02/07 11:12:33;;;;;;;148.98;65.53;;;;;;;;;;10526273;28;20493;-93
2024/02/07 11:17:35;;;;;;;141.63;64.57;;;;;;;;;;10530074;28;20414;-90
2024/02/07 11:22:42;;;;;;;143.27;65.03;;;;;;;;;;10529414;28;20430;-92
2024/02/07 11:27:46;;;;;;;139.80;62.63;;;;;;;;;;10526082;28;20469;-92
2024/02/07 11:32:49;;;;;;;141.77;63.67;;;;;;;;;;10524120;28;20416;-93
2024/02/07 11:37:52;;;;;;;138.68;61.85;;;;;;;;;;10523303;28;20438;-93
2024/02/07 11:43:02;;;;;;;153.55;65.82;;;;;;;;;;10518575;28;20468;-92
2024/02/07 11:48:17;;;;;;;138.20;61.03;;;;;;;;;;10516790;28;20414;-92
2024/02/07 11:53:20;;;;;;;152.98;62.78;;;;;;;;;;10531525;28;20410;-92
2024/02/07 11:58:25;;;;;;;152.77;64.67;;;;;;;;;;10523965;28;20406;-92
2024/02/07 12:03:27;;;;;;;147.05;63.10;;;;;;;;;;10521442;28;20400;-92
2024/02/07 12:08:30;;;;;;;144.43;59.20;;;;;;;;;;10518835;28;21078;-93
2024/02/07 12:13:34;;;;;;;146.75;64.07;;;;;;;;;;10523006;28;20473;-92
2024/02/07 12:18:37;;;;;;;146.52;64.55;;;;;;;;;;10517864;28;20416;-94
2024/02/07 12:23:39;;;;;;;141.70;57.07;;;;;;;;;;10519180;28;20400;-76
2024/02/07 12:28:43;;;;;;;140.73;57.97;;;;;;;;;;10511826;28;20422;-94
2024/02/07 12:33:47;;;;;;;137.43;59.65;;;;;;;;;;10511705;28;20419;-93
2024/02/07 12:38:50;;;;;;;137.52;58.75;;;;;;;;;;10513555;28;20408;-93
2024/02/07 12:43:57;;;;;;;151.25;66.05;;;;;;;;;;10502965;28;20442;-94
2024/02/07 12:55:15;;;;;;;153.67;60.73;;;;;;;;;;10497570;28;20418;-93
2024/02/07 13:00:19;;;;;;;164.83;67.97;;;;;;;;;;10463288;28;20463;-94
2024/02/07 13:05:22;;;;;;;178.07;71.53;;;;;;;;;;10472628;28;20437;-95
2024/02/07 13:10:24;;;;;;;156.10;61.63;;;;;;;;;;10489516;28;20452;-93
2024/02/07 13:15:28;;;;;;;166.55;69.20;;;;;;;;;;10480974;28;20467;-94
2024/02/07 13:20:30;;;;;;;139.87;60.60;;;;;;;;;;10480253;28;20497;-95
2024/02/07 13:25:33;;;;;;;143.00;57.47;;;;;;;;;;10482208;28;21018;-95
2024/02/07 13:30:36;;;;;;;145.15;57.60;;;;;;;;;;10493185;28;20416;-94
2024/02/07 13:35:39;;;;;;;137.93;58.38;;;;;;;;;;10499025;28;20942;-95
2024/02/07 13:40:41;;;;;;;154.60;60.80;;;;;;;;;;10494564;28;20414;-93
2024/02/07 13:45:45;;;;;;;158.93;62.73;;;;;;;;;;10495507;28;20519;-93
2024/02/07 13:50:48;;;;;;;142.90;57.55;;;;;;;;;;10489225;28;20788;-88
2024/02/07 13:55:50;;;;;;;136.70;56.90;;;;;;;;;;10501908;28;20425;-91
2024/02/07 14:00:54;;;;;;;144.15;57.05;;;;;;;;;;10519000;28;20410;-92
2024/02/07 14:05:56;;;;;;;135.88;56.25;;;;;;;;;;10506970;28;20389;-92
2024/02/07 14:11:00;;;;;;;136.73;55.40;;;;;;;;;;10517242;28;20448;-91
2024/02/07 14:16:05;;;;;;;128.33;53.53;;;;;;;;;;10522237;28;20404;-95
2024/02/07 14:21:08;;;;;;;131.82;52.90;;;;;;;;;;10527460;28;20400;-92
2024/02/07 14:26:10;;;;;;;133.85;52.42;;;;;;;;;;10521846;28;20405;-94
2024/02/07 14:31:14;;;;;;;126.65;52.58;;;;;;;;;;10519839;28;20418;-92
2024/02/07 14:36:17;;;;;;;133.88;53.45;;;;;;;;;;10524570;28;20983;-93
2024/02/07 14:41:22;;;;;;;121.60;52.67;;;;;;;;;;10510414;28;20390;-92
2024/02/07 14:46:25;;;;;;;134.65;55.30;;;;;;;;;;10515059;28;20867;-93
2024/02/07 14:51:28;;;;;;;124.10;54.10;;;;;;;;;;10536421;28;20416;-92
2024/02/07 14:56:30;;;;;;;121.53;52.57;;;;;;;;;;10526424;28;20955;-92
2024/02/07 15:01:34;;;;;;;134.73;56.17;;;;;;;;;;10514312;28;20407;-92
2024/02/07 15:06:36;;;;;;;133.43;53.80;;;;;;;;;;10524638;28;20715;-92
2024/02/07 15:11:38;;;;;;;134.00;52.75;;;;;;;;;;10526616;28;20493;-92
2024/02/07 15:16:43;;;;;;;131.68;53.97;;;;;;;;;;10527546;28;20405;-92
2024/02/07 15:21:45;;;;;;;124.93;53.53;;;;;;;;;;10516730;28;20772;-93
2024/02/07 15:26:47;;;;;;;117.55;50.67;;;;;;;;;;10525641;28;20811;-92
2024/02/07 15:31:51;;;;;;;123.03;52.40;;;;;;;;;;10519297;28;20414;-93
2024/02/07 15:36:54;;;;;;;123.30;53.58;;;;;;;;;;10523870;28;20460;-93
2024/02/07 15:41:56;;;;;;;125.60;53.65;;;;;;;;;;10521003;28;20878;-93
2024/02/07 15:47:00;;;;;;;128.05;52.75;;;;;;;;;;10514242;28;20412;-93
2024/02/07 15:52:02;;;;;;;121.00;52.50;;;;;;;;;;10513541;28;20545;-92
2024/02/07 15:57:05;;;;;;;127.75;52.53;;;;;;;;;;10525583;28;20420;-92
2024/02/07 16:02:09;;;;;;;120.70;49.97;;;;;;;;;;10528098;28;20412;-92
2024/02/07 16:07:11;;;;;;;132.75;52.42;;;;;;;;;;10523719;28;20413;-92
2024/02/07 16:12:14;;;;;;;118.83;53.47;;;;;;;;;;10521466;28;20416;-92
2024/02/07 16:17:18;;;;;;;123.87;51.40;;;;;;;;;;10525004;28;20400;-92
2024/02/07 16:22:20;;;;;;;125.63;50.70;;;;;;;;;;10512317;28;20438;-93
2024/02/07 16:27:23;;;;;;;120.68;51.10;;;;;;;;;;10521689;28;20413;-92
2024/02/07 16:32:28;;;;;;;130.10;53.37;;;;;;;;;;10533538;28;20545;-87
2024/02/07 16:37:31;;;;;;;135.05;53.95;;;;;;;;;;10519164;28;20396;-89
2024/02/07 16:42:33;;;;;;;127.35;51.83;;;;;;;;;;10519126;28;20947;-89
2024/02/07 16:47:37;;;;;;;131.68;54.20;;;;;;;;;;10504710;28;20422;-86
2024/02/07 16:52:40;;;;;;;122.57;53.60;;;;;;;;;;10518035;28;20420;-87
2024/02/07 16:57:42;;;;;;;131.20;53.47;;;;;;;;;;10513213;28;20404;-87
2024/02/07 17:02:46;;;;;;;139.65;57.22;;;;;;;;;;10514764;28;20406;-87
2024/02/07 17:07:48;;;;;;;142.90;59.00;;;;;;;;;;10511644;28;20485;-85
2024/02/07 17:12:51;;;;;;;134.02;55.83;;;;;;;;;;10524421;28;20455;-87
2024/02/07 17:17:55;;;;;;;135.63;53.85;;;;;;;;;;10521694;28;20405;-87
2024/02/07 17:22:58;;;;;;;136.67;57.47;;;;;;;;;;10529032;28;20432;-88
2024/02/07 17:28:00;;;;;;;131.87;56.07;;;;;;;;;;10528532;28;20424;-87
2024/02/07 17:33:05;;;;;;;147.35;59.70;;;;;;;;;;10530958;28;20477;-87
2024/02/07 17:38:08;;;;;;;142.30;59.00;;;;;;;;;;10520683;28;20502;-87
2024/02/07 17:43:10;;;;;;;146.52;59.92;;;;;;;;;;10529346;28;20400;-87
2024/02/07 17:48:14;;;;;;;145.82;61.35;;;;;;;;;;10516408;28;20412;-88
2024/02/07 17:53:17;;;;;;;143.35;57.20;;;;;;;;;;10521020;28;20424;-87
2024/02/07 17:58:19;;;;;;;132.18;57.03;;;;;;;;;;10516265;28;20450;-87
2024/02/07 18:03:25;;;;;;;139.38;54.75;;;;;;;;;;10522163;28;20410;-88
2024/02/07 18:08:28;;;;;;;157.90;61.55;;;;;;;;;;10528041;28;20412;-85
2024/02/07 18:13:31;;;;;;;157.17;62.33;;;;;;;;;;10524074;28;20949;-88
2024/02/07 18:18:35;;;;;;;160.73;67.75;;;;;;;;;;10523192;28;20408;-87
2024/02/07 18:23:42;;;;;;;155.80;66.53;;;;;;;;;;10523219;28;20442;-90
2024/02/07 18:28:44;;;;;;;147.60;58.57;;;;;;;;;;10521707;28;20975;-87
2024/02/07 18:33:48;;;;;;;156.75;63.35;;;;;;;;;;10515336;28;20452;-90
2024/02/07 18:38:53;;;;;;;145.07;59.33;;;;;;;;;;10527955;28;20408;-88
2024/02/07 18:43:55;;;;;;;146.52;60.65;;;;;;;;;;10538292;28;20478;-90
2024/02/07 18:48:59;;;;;;;151.90;61.08;;;;;;;;;;10526448;28;20458;-90
2024/02/07 18:54:03;;;;;;;153.20;60.63;;;;;;;;;;10512412;28;20774;-90
2024/02/07 18:59:06;;;;;;;149.52;60.83;;;;;;;;;;10514250;28;20420;-91
2024/02/07 19:04:11;;;;;;;147.93;59.60;;;;;;;;;;10519630;28;20404;-90
2024/02/07 19:09:14;;;;;;;151.80;59.90;;;;;;;;;;10516829;28;20469;-90
2024/02/07 19:14:16;;;;;;;147.07;60.43;;;;;;;;;;10509875;28;20645;-91
2024/02/07 19:19:21;;;;;;;142.17;59.40;;;;;;;;;;10509186;28;20404;-91
2024/02/07 19:24:23;;;;;;;146.85;58.85;;;;;;;;;;10512104;28;20553;-88
2024/02/07 19:29:31;;;;;;;142.65;58.90;;;;;;;;;;10509207;28;20416;-89
2024/02/07 19:34:35;;;;;;;143.50;59.00;;;;;;;;;;10515128;28;20445;-89
2024/02/07 19:39:37;;;;;;;139.65;58.10;;;;;;;;;;10516435;28;20489;-89
2024/02/07 19:44:40;;;;;;;178.25;69.40;;;;;;;;;;10509916;28;20416;-89
2024/02/07 19:49:44;;;;;;;173.90;63.70;;;;;;;;;;10512195;28;20418;-90
2024/02/07 19:54:49;;;;;;;163.10;67.25;;;;;;;;;;10508100;28;20420;-92
2024/02/07 19:59:52;;;;;;;161.63;64.73;;;;;;;;;;10504111;28;20444;-90
2024/02/07 20:04:55;;;;;;;154.10;62.75;;;;;;;;;;10531975;28;20466;-91
2024/02/07 20:09:59;;;;;;;198.75;77.13;;;;;;;;;;10530902;28;20404;-91
2024/02/07 20:15:01;;;;;;;171.03;68.20;;;;;;;;;;10501702;28;20983;-88
2024/02/07 20:20:07;;;;;;;199.57;84.07;;;;;;;;;;10503489;28;20410;-88
2024/02/07 20:25:12;;;;;;;166.85;68.32;;;;;;;;;;10524867;28;20416;-87
2024/02/07 20:30:15;;;;;;;173.30;69.00;;;;;;;;;;10509663;28;20938;-88
2024/02/07 20:35:21;;;;;;;170.27;68.32;;;;;;;;;;10510037;28;20418;-87
2024/02/07 20:40:23;;;;;;;171.23;67.03;;;;;;;;;;10518699;28;20472;-88
2024/02/07 20:45:25;;;;;;;176.35;70.40;;;;;;;;;;10513982;28;20424;-88
2024/02/07 20:50:29;;;;;;;164.35;65.35;;;;;;;;;;10525028;28;20417;-88
2024/02/07 20:55:32;;;;;;;173.27;71.10;;;;;;;;;;10528758;28;20482;-88
2024/02/07 21:00:34;;;;;;;179.30;71.53;;;;;;;;;;10528858;28;20736;-88
2024/02/07 21:05:38;;;;;;;170.20;71.63;;;;;;;;;;10528389;28;20404;-87
2024/02/07 21:10:41;;;;;;;169.35;72.65;;;;;;;;;;10532328;28;20408;-81
2024/02/07 21:15:43;;;;;;;167.80;67.87;;;;;;;;;;10519245;28;20903;-88
2024/02/07 21:20:47;;;;;;;165.43;69.13;;;;;;;;;;10528352;28;20446;-88
2024/02/07 21:25:50;;;;;;;157.65;67.70;;;;;;;;;;10530874;28;20727;-88
2024/02/07 21:30:52;;;;;;;165.82;69.00;;;;;;;;;;10528130;28;20890;-88
2024/02/07 21:35:56;;;;;;;162.77;67.30;;;;;;;;;;10505891;28;20475;-89
2024/02/07 21:40:58;;;;;;;163.25;68.78;;;;;;;;;;10520154;28;20770;-87
2024/02/07 21:46:02;;;;;;;177.38;71.07;;;;;;;;;;10501831;28;20406;-89
2024/02/07 21:51:07;;;;;;;166.73;68.40;;;;;;;;;;10536386;28;21156;-89
2024/02/07 21:56:09;;;;;;;163.85;68.03;;;;;;;;;;10532253;28;20458;-88
2024/02/07 22:01:12;;;;;;;164.75;70.68;;;;;;;;;;10534048;28;20442;-89
2024/02/07 22:06:16;;;;;;;163.10;68.20;;;;;;;;;;10534119;28;20400;-89
2024/02/07 22:11:18;;;;;;;168.57;69.88;;;;;;;;;;10524828;28;20473;-89
2024/02/07 22:16:21;;;;;;;162.07;67.57;;;;;;;;;;10517064;28;20786;-84
2024/02/07 22:21:25;;;;;;;165.60;66.37;;;;;;;;;;10508986;28;20398;-84
2024/02/07 22:26:27;;;;;;;158.20;67.57;;;;;;;;;;10514792;28;20466;-85
2024/02/07 22:31:29;;;;;;;162.55;67.00;;;;;;;;;;10522032;28;20912;-85
2024/02/07 22:36:34;;;;;;;162.88;67.32;;;;;;;;;;10513627;28;20440;-84
2024/02/07 22:41:36;;;;;;;158.10;67.18;;;;;;;;;;10514629;28;20490;-85
2024/02/07 22:46:47;;;;;;;162.32;67.15;;;;;;;;;;10510793;28;20719;-85
2024/02/07 22:51:51;;;;;;;165.48;68.22;;;;;;;;;;10517237;28;20446;-85
2024/02/07 22:56:53;;;;;;;154.53;66.70;;;;;;;;;;10523240;28;20434;-84
2024/02/07 23:01:55;;;;;;;176.90;70.97;;;;;;;;;;10521320;28;20471;-85
2024/02/07 23:07:01;;;;;;;171.45;70.75;;;;;;;;;;10519689;28;20406;-85
2024/02/07 23:12:04;;;;;;;181.90;72.30;;;;;;;;;;10518602;28;20827;-85
2024/02/07 23:17:06;;;;;;;170.95;71.97;;;;;;;;;;10526767;28;20421;-84
2024/02/07 23:22:10;;;;;;;159.70;67.40;;;;;;;;;;10518346;28;20400;-84
2024/02/07 23:27:12;;;;;;;176.30;70.75;;;;;;;;;;10519420;28;20819;-83
2024/02/07 23:32:15;;;;;;;163.70;70.63;;;;;;;;;;10517019;28;20756;-84
2024/02/07 23:37:19;;;;;;;157.57;66.82;;;;;;;;;;10515441;28;21098;-84
2024/02/07 23:42:21;;;;;;;167.38;69.18;;;;;;;;;;10513720;28;20400;-85
2024/02/07 23:47:24;;;;;;;167.25;68.30;;;;;;;;;;10514612;28;20438;-85
2024/02/07 23:52:27;;;;;;;170.82;70.93;;;;;;;;;;10512752;28;20488;-84
2024/02/07 23:57:30;;;;;;;165.70;70.82;;;;;;;;;;10519003;28;20879;-85
